createdAt,value
2022-09-01T00:00:41.741Z,1.26
2022-09-01T00:02:13.260Z,1.23
2022-09-01T00:03:44.677Z,1.43
2022-09-01T00:05:17.235Z,1.33
2022-09-01T00:06:50.135Z,1.45
2022-09-01T00:08:21.517Z,1.51
2022-09-01T00:09:52.960Z,1.44
2022-09-01T00:11:24.286Z,1.47
2022-09-01T00:12:55.599Z,1.37
2022-09-01T00:14:30.170Z,1.36
2022-09-01T00:16:02.392Z,1.26
2022-09-01T00:17:33.823Z,1.11
2022-09-01T00:19:05.140Z,1.39
2022-09-01T00:20:36.789Z,1.29
2022-09-01T00:22:13.370Z,1.35
2022-09-01T00:23:44.766Z,1.34
2022-09-01T00:25:16.253Z,1.36
2022-09-01T00:26:47.647Z,1.27
2022-09-01T00:28:19.176Z,1.41
2022-09-01T00:29:50.584Z,1.50
2022-09-01T00:31:21.992Z,1.24
2022-09-01T00:32:53.465Z,1.30
2022-09-01T00:34:24.803Z,1.28
2022-09-01T00:35:56.372Z,1.33
2022-09-01T00:37:27.782Z,1.36
2022-09-01T00:38:59.134Z,1.32
2022-09-01T00:40:30.691Z,1.36
2022-09-01T00:42:02.202Z,1.27
2022-09-01T00:43:33.579Z,1.50
2022-09-01T00:45:04.859Z,1.10
2022-09-01T00:46:36.997Z,1.21
2022-09-01T00:48:21.057Z,1.35
2022-09-01T00:49:52.654Z,1.25
2022-09-01T00:51:24.020Z,1.16
2022-09-01T00:52:55.436Z,1.28
2022-09-01T00:54:26.749Z,1.25
2022-09-01T00:55:58.189Z,1.38
2022-09-01T00:57:29.630Z,1.26
2022-09-01T00:59:02.001Z,1.18
2022-09-01T01:00:33.607Z,1.35
2022-09-01T01:02:05.283Z,1.86
2022-09-01T01:03:36.767Z,1.39
2022-09-01T01:05:08.039Z,1.23
2022-09-01T01:06:44.057Z,1.32
2022-09-01T01:08:16.179Z,1.27
2022-09-01T01:09:47.948Z,1.35
2022-09-01T01:11:19.316Z,1.39
2022-09-01T01:12:50.793Z,1.28
2022-09-01T01:14:22.885Z,1.40
2022-09-01T01:15:54.218Z,1.30
2022-09-01T01:17:29.055Z,1.30
2022-09-01T01:19:00.429Z,1.33
2022-09-01T01:20:31.917Z,1.23
2022-09-01T01:22:03.348Z,1.42
2022-09-01T01:23:34.678Z,1.53
2022-09-01T01:25:06.667Z,1.41
2022-09-01T01:26:38.499Z,1.39
2022-09-01T01:28:09.808Z,1.50
2022-09-01T01:29:41.248Z,1.44
2022-09-01T01:31:12.825Z,1.32
2022-09-01T01:32:44.380Z,1.37
2022-09-01T01:34:15.892Z,1.54
2022-09-01T01:35:47.250Z,1.34
2022-09-01T01:37:18.909Z,1.50
2022-09-01T01:38:51.455Z,1.50
2022-09-01T01:40:22.939Z,1.63
2022-09-01T01:41:54.409Z,1.60
2022-09-01T01:43:25.733Z,1.38
2022-09-01T01:44:57.051Z,1.69
2022-09-01T01:46:28.690Z,1.34
2022-09-01T01:48:00.208Z,1.33
2022-09-01T01:49:31.584Z,1.47
2022-09-01T01:51:02.992Z,1.44
2022-09-01T01:52:34.373Z,1.33
2022-09-01T01:54:05.864Z,1.53
2022-09-01T01:55:37.252Z,1.51
2022-09-01T01:57:13.546Z,1.43
2022-09-01T01:58:44.928Z,1.43
2022-09-01T02:00:16.345Z,1.46
2022-09-01T02:01:48.603Z,1.58
2022-09-01T02:03:20.049Z,1.71
2022-09-01T02:04:51.675Z,1.53
2022-09-01T02:06:23.069Z,1.53
2022-09-01T02:07:54.477Z,1.49
2022-09-01T02:09:25.867Z,1.71
2022-09-01T02:10:57.192Z,1.69
2022-09-01T02:12:28.640Z,1.56
2022-09-01T02:14:00.030Z,1.53
2022-09-01T02:15:31.430Z,1.53
2022-09-01T02:17:02.815Z,1.51
2022-09-01T02:18:34.234Z,1.72
2022-09-01T02:20:05.613Z,1.41
2022-09-01T02:21:37.870Z,1.59
2022-09-01T02:23:09.430Z,1.76
2022-09-01T02:24:40.996Z,1.56
2022-09-01T02:26:17.239Z,1.62
2022-09-01T02:27:49.059Z,1.63
2022-09-01T02:29:20.374Z,1.37
2022-09-01T02:30:52.856Z,1.66
2022-09-01T02:32:25.188Z,1.51
2022-09-01T02:33:56.606Z,1.70
2022-09-01T02:35:27.977Z,1.62
2022-09-01T02:36:59.454Z,1.77
2022-09-01T02:38:30.758Z,1.49
2022-09-01T02:40:02.322Z,1.63
2022-09-01T02:41:33.738Z,1.82
2022-09-01T02:43:05.036Z,1.68
2022-09-01T02:44:40.811Z,1.81
2022-09-01T02:46:12.689Z,1.79
2022-09-01T02:47:44.033Z,1.81
2022-09-01T02:49:15.339Z,1.69
2022-09-01T02:50:46.744Z,1.61
2022-09-01T02:52:18.011Z,1.73
2022-09-01T02:53:49.316Z,1.80
2022-09-01T02:55:20.641Z,1.94
2022-09-01T02:56:52.244Z,1.81
2022-09-01T02:58:24.981Z,1.88
2022-09-01T02:59:57.133Z,1.79
2022-09-01T03:01:28.519Z,1.86
2022-09-01T03:02:59.924Z,1.73
2022-09-01T03:04:31.265Z,1.72
2022-09-01T03:06:02.612Z,1.81
2022-09-01T03:07:33.916Z,1.75
2022-09-01T03:09:05.212Z,1.73
2022-09-01T03:10:36.754Z,1.90
2022-09-01T03:12:08.119Z,1.73
2022-09-01T03:13:39.444Z,1.72
2022-09-01T03:15:10.807Z,1.78
2022-09-01T03:16:44.674Z,1.74
2022-09-01T03:18:16.017Z,1.83
2022-09-01T03:19:47.349Z,2.10
2022-09-01T03:21:18.735Z,1.90
2022-09-01T03:22:50.525Z,1.72
2022-09-01T03:24:21.824Z,1.75
2022-09-01T03:25:53.253Z,1.80
2022-09-01T03:27:24.724Z,1.98
2022-09-01T03:28:56.047Z,1.94
2022-09-01T03:30:27.393Z,1.83
2022-09-01T03:31:59.646Z,1.75
2022-09-01T03:33:31.099Z,1.81
2022-09-01T03:35:02.592Z,1.83
2022-09-01T03:36:33.878Z,1.87
2022-09-01T03:38:05.284Z,1.85
2022-09-01T03:39:36.584Z,1.87
2022-09-01T03:41:07.858Z,1.66
2022-09-01T03:42:39.503Z,1.73
2022-09-01T03:44:10.871Z,1.85
2022-09-01T03:45:42.658Z,1.65
2022-09-01T03:47:14.043Z,1.70
2022-09-01T03:48:45.786Z,1.47
2022-09-01T03:50:17.135Z,1.58
2022-09-01T03:51:48.484Z,1.79
2022-09-01T03:53:19.834Z,1.83
2022-09-01T03:54:51.179Z,1.52
2022-09-01T03:56:22.569Z,1.57
2022-09-01T03:57:54.017Z,1.73
2022-09-01T03:59:25.554Z,1.81
2022-09-01T04:00:56.960Z,1.76
2022-09-01T04:02:28.811Z,1.90
2022-09-01T04:04:00.308Z,1.56
2022-09-01T04:05:31.647Z,1.70
2022-09-01T04:07:02.980Z,1.67
2022-09-01T04:08:34.683Z,1.86
2022-09-01T04:10:06.008Z,1.98
2022-09-01T04:11:45.962Z,1.93
2022-09-01T04:13:17.901Z,1.59
2022-09-01T04:14:49.586Z,1.53
2022-09-01T04:17:05.334Z,1.70
2022-09-01T04:18:49.653Z,1.56
2022-09-01T04:20:21.635Z,1.88
2022-09-01T04:21:52.965Z,1.54
2022-09-01T04:23:24.624Z,1.64
2022-09-01T04:24:55.945Z,1.78
2022-09-01T04:26:27.329Z,1.79
2022-09-01T04:27:59.008Z,1.53
2022-09-01T04:29:30.440Z,1.87
2022-09-01T04:31:02.085Z,2.10
2022-09-01T04:32:33.404Z,1.84
2022-09-01T04:34:04.977Z,2.02
2022-09-01T04:35:37.981Z,1.97
2022-09-01T04:37:09.795Z,1.88
2022-09-01T04:38:41.158Z,1.91
2022-09-01T04:40:12.879Z,1.93
2022-09-01T04:41:44.499Z,1.74
2022-09-01T04:43:15.925Z,1.76
2022-09-01T04:44:48.187Z,2.03
2022-09-01T04:46:19.716Z,1.84
2022-09-01T04:47:52.578Z,1.80
2022-09-01T04:49:23.969Z,1.72
2022-09-01T04:50:55.518Z,1.88
2022-09-01T04:52:26.911Z,1.74
2022-09-01T04:53:58.382Z,1.72
2022-09-01T04:55:29.970Z,1.82
2022-09-01T04:57:01.371Z,1.86
2022-09-01T04:58:33.047Z,1.84
2022-09-01T05:00:04.773Z,1.91
2022-09-01T05:01:36.290Z,1.80
2022-09-01T05:03:07.554Z,1.82
2022-09-01T05:04:38.942Z,1.81
2022-09-01T05:06:10.738Z,1.85
2022-09-01T05:07:42.225Z,1.78
2022-09-01T05:09:14.048Z,1.65
2022-09-01T05:10:45.511Z,1.71
2022-09-01T05:12:16.848Z,1.78
2022-09-01T05:13:48.243Z,1.80
2022-09-01T05:15:19.634Z,1.73
2022-09-01T05:16:51.162Z,1.83
2022-09-01T05:18:22.596Z,1.72
2022-09-01T05:19:53.872Z,1.78
2022-09-01T05:21:25.133Z,1.73
2022-09-01T05:22:56.715Z,1.75
2022-09-01T05:24:28.198Z,1.62
2022-09-01T05:25:59.604Z,2.08
2022-09-01T05:27:30.976Z,1.85
2022-09-01T05:29:02.803Z,2.02
2022-09-01T05:30:34.562Z,2.19
2022-09-01T05:32:05.886Z,1.97
2022-09-01T05:33:37.433Z,1.97
2022-09-01T05:35:08.872Z,2.10
2022-09-01T05:36:40.385Z,2.15
2022-09-01T05:38:11.916Z,1.77
2022-09-01T05:39:43.324Z,2.05
2022-09-01T05:41:15.083Z,1.81
2022-09-01T05:42:46.425Z,1.94
2022-09-01T05:44:17.824Z,2.00
2022-09-01T05:46:05.729Z,2.06
2022-09-01T05:47:38.107Z,2.08
2022-09-01T05:49:09.915Z,2.02
2022-09-01T05:50:41.242Z,2.16
2022-09-01T05:52:12.717Z,2.36
2022-09-01T05:53:44.031Z,2.48
2022-09-01T05:55:15.376Z,2.44
2022-09-01T05:56:47.976Z,2.25
2022-09-01T05:58:19.591Z,2.20
2022-09-01T05:59:51.236Z,2.17
2022-09-01T06:01:22.633Z,2.33
2022-09-01T06:02:54.034Z,2.52
2022-09-01T06:04:25.660Z,2.20
2022-09-01T06:05:57.290Z,2.10
2022-09-01T06:07:28.909Z,2.19
2022-09-01T06:09:00.315Z,1.86
2022-09-01T06:10:31.769Z,1.97
2022-09-01T06:12:03.196Z,1.66
2022-09-01T06:13:34.513Z,1.99
2022-09-01T06:15:05.959Z,1.84
2022-09-01T06:16:37.396Z,2.16
2022-09-01T06:18:08.821Z,2.20
2022-09-01T06:19:40.247Z,1.84
2022-09-01T06:21:11.500Z,2.18
2022-09-01T06:22:42.835Z,1.86
2022-09-01T06:24:14.221Z,1.79
2022-09-01T06:25:45.998Z,1.88
2022-09-01T06:27:17.475Z,2.07
2022-09-01T06:28:49.117Z,1.91
2022-09-01T06:30:23.429Z,1.99
2022-09-01T06:31:55.238Z,2.17
2022-09-01T06:33:26.685Z,1.96
2022-09-01T06:34:58.359Z,1.91
2022-09-01T06:36:33.186Z,1.96
2022-09-01T06:38:06.795Z,1.91
2022-09-01T06:39:38.423Z,2.06
2022-09-01T06:41:09.941Z,2.03
2022-09-01T06:42:41.447Z,2.10
2022-09-01T06:44:14.648Z,2.04
2022-09-01T06:45:46.241Z,2.09
2022-09-01T06:47:17.730Z,2.13
2022-09-01T06:48:49.626Z,2.17
2022-09-01T06:52:22.356Z,1.89
2022-09-01T06:53:53.847Z,1.89
2022-09-01T06:55:25.304Z,1.86
2022-09-01T06:56:56.799Z,1.60
2022-09-01T06:58:28.182Z,1.92
2022-09-01T06:59:59.625Z,1.63
2022-09-01T07:01:31.118Z,1.84
2022-09-01T07:03:02.819Z,1.80
2022-09-01T07:04:36.010Z,1.97
2022-09-01T07:06:07.492Z,1.68
2022-09-01T07:08:05.544Z,1.72
2022-09-01T07:09:46.905Z,1.63
2022-09-01T07:11:23.056Z,1.57
2022-09-01T07:14:14.993Z,1.73
2022-09-01T07:17:48.615Z,1.71
2022-09-01T07:19:20.035Z,1.61
2022-09-01T07:21:36.366Z,1.56
2022-09-01T07:23:11.182Z,1.68
2022-09-01T07:24:42.553Z,1.54
2022-09-01T07:26:24.612Z,1.86
2022-09-01T07:28:00.438Z,1.77
2022-09-01T07:29:32.443Z,1.77
2022-09-01T07:31:48.973Z,1.75
2022-09-01T07:33:44.506Z,1.61
2022-09-01T07:35:16.082Z,1.69
2022-09-01T07:38:02.948Z,1.83
2022-09-01T07:44:30.237Z,2.09
2022-09-01T07:46:36.591Z,1.71
2022-09-01T07:48:08.460Z,1.96
2022-09-01T07:50:11.502Z,1.93
2022-09-01T07:51:56.333Z,1.87
2022-09-01T07:53:31.331Z,1.80
2022-09-01T07:55:02.733Z,2.13
2022-09-01T07:56:39.417Z,1.88
2022-09-01T07:58:11.768Z,2.14
2022-09-01T07:59:43.190Z,1.91
2022-09-01T08:01:14.742Z,1.73
2022-09-01T08:02:46.401Z,1.67
2022-09-01T08:04:18.363Z,1.54
2022-09-01T08:05:49.764Z,1.60
2022-09-01T08:07:21.806Z,1.77
2022-09-01T08:08:56.905Z,1.60
2022-09-01T08:10:28.784Z,1.71
2022-09-01T08:12:02.898Z,1.64
2022-09-01T08:13:40.706Z,1.60
2022-09-01T08:15:13.947Z,1.54
2022-09-01T08:17:18.336Z,1.64
2022-09-01T08:19:16.271Z,1.59
2022-09-01T08:20:48.112Z,1.82
2022-09-01T08:22:19.591Z,1.56
2022-09-01T08:23:51.038Z,1.71
2022-09-01T08:25:24.907Z,1.58
2022-09-01T08:26:56.767Z,1.90
2022-09-01T08:28:28.467Z,1.59
2022-09-01T08:30:00.253Z,1.76
2022-09-01T08:31:36.647Z,1.63
2022-09-01T08:33:10.496Z,1.38
2022-09-01T08:34:42.269Z,1.46
2022-09-01T08:36:13.590Z,1.41
2022-09-01T08:37:45.256Z,1.33
2022-09-01T08:39:16.781Z,1.28
2022-09-01T08:40:48.466Z,1.33
2022-09-01T08:42:19.984Z,1.59
2022-09-01T08:43:51.413Z,1.39
2022-09-01T08:45:22.847Z,1.48
2022-09-01T08:46:55.022Z,1.54
2022-09-01T08:49:16.417Z,1.29
2022-09-01T08:50:55.842Z,1.49
2022-09-01T08:52:27.590Z,1.67
2022-09-01T08:53:59.074Z,1.34
2022-09-01T08:55:30.494Z,1.40
2022-09-01T08:57:02.078Z,1.48
2022-09-01T08:58:33.518Z,1.35
2022-09-01T09:00:05.406Z,1.28
2022-09-01T09:01:36.856Z,1.08
2022-09-01T09:03:09.374Z,1.32
2022-09-01T09:04:40.890Z,1.25
2022-09-01T09:06:12.336Z,1.51
2022-09-01T09:07:43.846Z,1.24
2022-09-01T09:09:15.555Z,1.45
2022-09-01T09:10:47.282Z,1.28
2022-09-01T09:12:18.897Z,1.20
2022-09-01T09:13:50.330Z,1.25
2022-09-01T09:15:21.966Z,1.28
2022-09-01T09:16:54.018Z,1.16
2022-09-01T09:18:39.151Z,1.44
2022-09-01T09:20:11.101Z,1.21
2022-09-01T09:21:42.540Z,1.33
2022-09-01T09:23:13.879Z,1.65
2022-09-01T09:24:45.349Z,1.44
2022-09-01T09:26:21.889Z,1.36
2022-09-01T09:28:00.906Z,1.32
2022-09-01T09:29:32.547Z,1.20
2022-09-01T09:31:05.896Z,1.27
2022-09-01T09:33:06.541Z,1.14
2022-09-01T09:34:46.647Z,1.20
2022-09-01T09:36:18.262Z,1.24
2022-09-01T09:37:49.973Z,1.14
2022-09-01T09:39:21.373Z,1.22
2022-09-01T09:41:14.070Z,1.30
2022-09-01T09:42:48.346Z,1.46
2022-09-01T09:44:19.795Z,1.09
2022-09-01T09:45:51.415Z,1.17
2022-09-01T09:47:42.688Z,1.20
2022-09-01T09:49:15.263Z,1.30
2022-09-01T09:50:47.132Z,1.52
2022-09-01T09:52:20.560Z,1.19
2022-09-01T09:53:52.028Z,1.32
2022-09-01T09:55:23.607Z,1.03
2022-09-01T09:56:55.089Z,1.21
2022-09-01T09:58:26.474Z,1.17
2022-09-01T10:00:00.173Z,1.25
2022-09-01T10:01:33.503Z,1.15
2022-09-01T10:03:07.839Z,1.58
2022-09-01T10:04:40.697Z,1.36
2022-09-01T10:06:12.173Z,1.21
2022-09-01T10:07:43.869Z,1.28
2022-09-01T10:09:15.470Z,1.22
2022-09-01T10:10:56.501Z,1.20
2022-09-01T10:12:30.019Z,1.34
2022-09-01T10:14:01.644Z,1.22
2022-09-01T10:15:33.192Z,1.26
2022-09-01T10:17:06.379Z,1.25
2022-09-01T10:18:38.284Z,1.32
2022-09-01T10:20:11.373Z,1.30
2022-09-01T10:21:43.015Z,1.24
2022-09-01T10:23:15.466Z,1.17
2022-09-01T10:24:50.340Z,1.16
2022-09-01T10:26:22.242Z,1.18
2022-09-01T10:27:55.051Z,1.28
2022-09-01T10:29:26.737Z,1.22
2022-09-01T10:30:58.750Z,1.32
2022-09-01T10:32:35.207Z,1.25
2022-09-01T10:34:08.932Z,1.33
2022-09-01T10:35:40.663Z,1.34
2022-09-01T10:37:16.191Z,1.34
2022-09-01T10:38:53.727Z,1.16
2022-09-01T10:40:31.183Z,1.34
2022-09-01T10:42:03.184Z,1.24
2022-09-01T10:43:36.283Z,1.19
2022-09-01T10:45:10.056Z,1.17
2022-09-01T10:46:48.830Z,1.26
2022-09-01T10:48:30.470Z,1.29
2022-09-01T10:50:07.682Z,1.27
2022-09-01T10:51:50.633Z,1.29
2022-09-01T10:53:26.901Z,1.71
2022-09-01T10:54:58.629Z,1.33
2022-09-01T10:56:36.578Z,1.29
2022-09-01T10:58:09.489Z,1.49
2022-09-01T11:01:16.944Z,1.30
2022-09-01T11:02:53.377Z,1.06
2022-09-01T11:04:25.294Z,1.20
2022-09-01T11:06:11.152Z,1.10
2022-09-01T11:08:03.034Z,1.05
2022-09-01T11:09:46.053Z,1.21
2022-09-01T11:11:17.495Z,1.04
2022-09-01T11:12:49.248Z,1.43
2022-09-01T11:14:21.869Z,1.28
2022-09-01T11:15:53.637Z,1.13
2022-09-01T11:17:25.675Z,1.05
2022-09-01T11:18:57.198Z,1.31
2022-09-01T11:20:28.680Z,1.07
2022-09-01T11:22:00.261Z,1.11
2022-09-01T11:23:31.702Z,1.14
2022-09-01T11:25:12.481Z,1.11
2022-09-01T11:26:44.435Z,0.99
2022-09-01T11:28:18.628Z,0.96
2022-09-01T11:29:50.233Z,1.21
2022-09-01T11:31:24.475Z,1.02
2022-09-01T11:32:56.038Z,1.03
2022-09-01T11:34:27.683Z,1.05
2022-09-01T11:35:59.494Z,1.15
2022-09-01T11:37:31.099Z,1.18
2022-09-01T11:39:02.546Z,1.22
2022-09-01T11:40:34.167Z,1.16
2022-09-01T11:42:05.748Z,1.14
2022-09-01T11:43:37.295Z,1.09
2022-09-01T11:45:09.543Z,1.03
2022-09-01T11:46:41.351Z,1.14
2022-09-01T11:48:13.144Z,0.93
2022-09-01T11:49:44.629Z,1.00
2022-09-01T11:51:16.080Z,1.12
2022-09-01T11:52:47.844Z,1.24
2022-09-01T11:54:19.325Z,1.15
2022-09-01T11:55:50.843Z,1.06
2022-09-01T11:57:22.309Z,1.12
2022-09-01T11:58:53.800Z,1.10
2022-09-01T12:00:25.260Z,1.14
2022-09-01T12:01:56.857Z,1.01
2022-09-01T12:03:28.594Z,1.14
2022-09-01T12:05:00.401Z,1.10
2022-09-01T12:06:32.021Z,1.04
2022-09-01T12:08:03.504Z,1.08
2022-09-01T12:09:35.008Z,1.01
2022-09-01T12:11:06.605Z,1.06
2022-09-01T12:12:38.117Z,1.02
2022-09-01T12:14:11.654Z,0.96
2022-09-01T12:16:06.988Z,1.11
2022-09-01T12:17:38.909Z,0.98
2022-09-01T12:19:10.761Z,0.97
2022-09-01T12:20:42.337Z,1.10
2022-09-01T12:22:14.242Z,0.92
2022-09-01T12:23:45.932Z,1.02
2022-09-01T12:25:17.667Z,1.05
2022-09-01T12:26:49.414Z,0.96
2022-09-01T12:28:21.042Z,1.07
2022-09-01T12:29:52.595Z,1.09
2022-09-01T12:31:24.164Z,1.16
2022-09-01T12:33:23.777Z,0.99
2022-09-01T12:34:55.668Z,1.05
2022-09-01T12:36:27.191Z,1.01
2022-09-01T12:37:58.742Z,1.12
2022-09-01T12:39:30.277Z,0.96
2022-09-01T12:41:02.081Z,0.94
2022-09-01T12:42:38.029Z,0.97
2022-09-01T12:44:13.403Z,1.13
2022-09-01T12:45:44.986Z,0.93
2022-09-01T12:47:16.618Z,0.96
2022-09-01T12:48:49.503Z,0.94
2022-09-01T12:50:21.368Z,1.00
2022-09-01T12:51:52.943Z,1.19
2022-09-01T12:53:24.920Z,0.95
2022-09-01T12:54:56.584Z,1.03
2022-09-01T12:56:28.511Z,1.05
2022-09-01T12:58:00.130Z,1.04
2022-09-01T12:59:36.039Z,0.88
2022-09-01T13:01:09.214Z,1.00
2022-09-01T13:02:48.384Z,0.89
2022-09-01T13:04:20.203Z,0.90
2022-09-01T13:05:52.048Z,0.83
2022-09-01T13:07:23.655Z,0.92
2022-09-01T13:08:56.690Z,1.05
2022-09-01T13:10:28.670Z,0.86
2022-09-01T13:12:07.859Z,0.91
2022-09-01T13:13:40.112Z,0.80
2022-09-01T13:16:46.058Z,0.87
2022-09-01T13:18:18.302Z,1.09
2022-09-01T13:19:50.738Z,0.93
2022-09-01T13:21:22.503Z,0.94
2022-09-01T13:22:54.286Z,1.05
2022-09-01T13:24:30.193Z,1.05
2022-09-01T13:26:02.714Z,0.91
2022-09-01T13:27:34.198Z,1.08
2022-09-01T13:29:05.651Z,1.00
2022-09-01T13:30:37.423Z,1.12
2022-09-01T13:32:19.315Z,0.98
2022-09-01T13:34:22.201Z,1.01
2022-09-01T13:35:55.050Z,0.80
2022-09-01T13:37:26.600Z,0.90
2022-09-01T13:38:58.260Z,0.98
2022-09-01T13:40:30.158Z,0.96
2022-09-01T13:42:01.755Z,1.06
2022-09-01T13:43:33.429Z,0.94
2022-09-01T13:45:05.156Z,0.90
2022-09-01T13:46:58.996Z,0.98
2022-09-01T13:51:14.363Z,0.98
2022-09-01T13:52:46.817Z,0.85
2022-09-01T13:54:27.120Z,0.90
2022-09-01T13:55:58.892Z,1.10
2022-09-01T13:57:35.709Z,1.00
2022-09-01T13:59:07.910Z,0.86
2022-09-01T14:00:39.751Z,0.91
2022-09-01T14:02:11.351Z,0.83
2022-09-01T14:03:42.813Z,0.93
2022-09-01T14:05:14.378Z,0.97
2022-09-01T14:06:45.950Z,1.07
2022-09-01T14:08:22.752Z,1.09
2022-09-01T14:09:54.509Z,0.93
2022-09-01T14:11:26.055Z,0.89
2022-09-01T14:12:57.500Z,1.04
2022-09-01T14:15:11.058Z,0.99
2022-09-01T14:16:43.130Z,0.84
2022-09-01T14:18:14.696Z,0.91
2022-09-01T14:19:46.587Z,0.96
2022-09-01T14:21:18.079Z,0.90
2022-09-01T14:22:50.097Z,0.98
2022-09-01T14:24:21.517Z,0.87
2022-09-01T14:25:53.194Z,1.01
2022-09-01T14:27:24.641Z,0.92
2022-09-01T14:28:56.280Z,0.99
2022-09-01T14:30:31.218Z,0.98
2022-09-01T14:32:03.138Z,1.13
2022-09-01T14:33:34.733Z,0.98
2022-09-01T14:35:06.272Z,0.93
2022-09-01T14:36:37.848Z,0.94
2022-09-01T14:38:09.441Z,0.97
2022-09-01T14:39:40.979Z,0.82
2022-09-01T14:41:12.646Z,1.05
2022-09-01T14:42:44.156Z,0.90
2022-09-01T14:44:15.636Z,0.82
2022-09-01T14:45:47.183Z,1.11
2022-09-01T14:47:20.889Z,0.92
2022-09-01T14:48:52.470Z,0.92
2022-09-01T14:50:23.986Z,0.93
2022-09-01T14:52:11.932Z,1.28
2022-09-01T14:53:43.822Z,1.16
2022-09-01T14:55:15.602Z,1.02
2022-09-01T14:57:28.524Z,1.17
2022-09-01T14:59:00.952Z,0.84
2022-09-01T15:00:32.625Z,1.04
2022-09-01T15:02:04.434Z,0.78
2022-09-01T15:03:36.156Z,0.92
2022-09-01T15:05:07.850Z,0.81
2022-09-01T15:06:39.581Z,0.85
2022-09-01T15:08:15.481Z,1.22
2022-09-01T15:09:48.591Z,1.09
2022-09-01T15:11:21.163Z,1.07
2022-09-01T15:12:52.927Z,1.01
2022-09-01T15:14:24.656Z,1.09
2022-09-01T15:15:56.322Z,0.90
2022-09-01T15:17:27.961Z,0.88
2022-09-01T15:18:59.511Z,1.07
2022-09-01T15:20:31.186Z,1.01
2022-09-01T15:22:02.692Z,0.92
2022-09-01T15:23:34.203Z,0.86
2022-09-01T15:25:05.717Z,0.99
2022-09-01T15:26:37.238Z,0.94
2022-09-01T15:28:09.058Z,0.98
2022-09-01T15:29:40.564Z,1.04
2022-09-01T15:31:12.121Z,0.94
2022-09-01T15:32:44.442Z,0.90
2022-09-01T15:34:16.028Z,1.11
2022-09-01T15:35:47.574Z,1.06
2022-09-01T15:37:19.051Z,0.88
2022-09-01T15:38:50.636Z,0.82
2022-09-01T15:40:22.252Z,1.04
2022-09-01T15:41:53.822Z,1.09
2022-09-01T15:43:25.438Z,0.97
2022-09-01T15:44:57.073Z,1.02
2022-09-01T15:46:28.779Z,0.84
2022-09-01T15:48:00.328Z,1.05
2022-09-01T15:49:31.957Z,0.95
2022-09-01T15:51:03.505Z,0.93
2022-09-01T15:52:35.321Z,0.92
2022-09-01T15:54:07.056Z,0.90
2022-09-01T15:55:38.558Z,0.85
2022-09-01T15:57:10.049Z,0.86
2022-09-01T15:59:00.395Z,0.96
2022-09-01T16:00:33.285Z,0.97
2022-09-01T16:02:34.771Z,1.11
2022-09-01T16:04:06.485Z,1.06
2022-09-01T16:05:38.056Z,1.07
2022-09-01T16:07:10.767Z,0.88
2022-09-01T16:08:42.349Z,0.92
2022-09-01T16:10:13.883Z,0.96
2022-09-01T16:11:45.375Z,1.03
2022-09-01T16:13:16.904Z,0.82
2022-09-01T16:14:48.462Z,1.01
2022-09-01T16:16:20.160Z,1.13
2022-09-01T16:17:51.788Z,1.03
2022-09-01T16:19:23.286Z,0.85
2022-09-01T16:20:54.835Z,0.90
2022-09-01T16:22:26.368Z,1.04
2022-09-01T16:24:00.594Z,1.02
2022-09-01T16:25:34.688Z,0.99
2022-09-01T16:27:06.385Z,0.96
2022-09-01T16:28:37.971Z,1.12
2022-09-01T16:30:10.044Z,1.19
2022-09-01T16:31:41.733Z,1.08
2022-09-01T16:33:13.656Z,0.87
2022-09-01T16:34:45.218Z,0.95
2022-09-01T16:36:16.792Z,0.94
2022-09-01T16:37:48.312Z,1.07
2022-09-01T16:39:19.928Z,0.94
2022-09-01T16:40:51.763Z,0.94
2022-09-01T16:42:23.369Z,0.93
2022-09-01T16:43:54.887Z,0.95
2022-09-01T16:45:26.764Z,1.00
2022-09-01T16:46:58.326Z,0.93
2022-09-01T16:48:29.914Z,0.88
2022-09-01T16:50:01.471Z,1.00
2022-09-01T16:51:33.106Z,0.91
2022-09-01T16:53:04.768Z,0.85
2022-09-01T16:54:36.326Z,1.03
2022-09-01T16:56:07.962Z,0.94
2022-09-01T16:57:39.726Z,1.09
2022-09-01T16:59:11.404Z,0.98
2022-09-01T17:00:43.716Z,1.00
2022-09-01T17:02:15.385Z,0.90
2022-09-01T17:03:47.041Z,0.85
2022-09-01T17:05:19.203Z,1.22
2022-09-01T17:06:50.717Z,1.02
2022-09-01T17:08:22.231Z,0.94
2022-09-01T17:09:54.042Z,0.96
2022-09-01T17:11:25.609Z,1.04
2022-09-01T17:12:57.238Z,1.05
2022-09-01T17:14:28.804Z,0.98
2022-09-01T17:16:00.394Z,1.03
2022-09-01T17:17:31.922Z,1.15
2022-09-01T17:19:03.721Z,1.05
2022-09-01T17:20:35.263Z,1.23
2022-09-01T17:22:06.905Z,1.06
2022-09-01T17:23:38.419Z,1.06
2022-09-01T17:25:10.011Z,0.91
2022-09-01T17:26:41.519Z,1.22
2022-09-01T17:28:13.075Z,1.24
2022-09-01T17:29:44.658Z,1.03
2022-09-01T17:31:16.373Z,1.35
2022-09-01T17:32:48.159Z,1.23
2022-09-01T17:34:21.242Z,1.06
2022-09-01T17:35:52.821Z,1.15
2022-09-01T17:37:28.830Z,1.04
2022-09-01T17:39:00.740Z,1.04
2022-09-01T17:40:32.461Z,1.12
2022-09-01T17:42:04.026Z,1.00
2022-09-01T17:43:35.539Z,1.03
2022-09-01T17:45:07.001Z,1.06
2022-09-01T17:46:38.511Z,1.25
2022-09-01T17:48:25.135Z,1.22
2022-09-01T17:50:34.850Z,1.16
2022-09-01T17:52:15.438Z,1.04
2022-09-01T17:53:47.027Z,1.14
2022-09-01T17:55:18.463Z,1.13
2022-09-01T17:56:49.919Z,1.09
2022-09-01T17:58:21.414Z,1.12
2022-09-01T17:59:52.834Z,0.98
2022-09-01T18:01:24.648Z,1.09
2022-09-01T18:02:56.080Z,1.17
2022-09-01T18:04:27.526Z,1.14
2022-09-01T18:05:59.248Z,1.09
2022-09-01T18:07:45.464Z,1.14
2022-09-01T18:09:17.154Z,1.18
2022-09-01T18:10:48.726Z,1.03
2022-09-01T18:12:20.550Z,1.11
2022-09-01T18:15:52.577Z,1.15
2022-09-01T18:17:25.284Z,1.44
2022-09-01T18:24:10.689Z,1.29
2022-09-01T18:25:55.217Z,1.21
2022-09-01T18:27:36.648Z,1.02
2022-09-01T18:29:30.073Z,1.13
2022-09-01T18:31:25.430Z,1.17
2022-09-01T18:32:57.000Z,1.16
2022-09-01T18:34:28.594Z,1.10
2022-09-01T18:36:00.167Z,1.13
2022-09-01T18:37:31.718Z,1.19
2022-09-01T18:39:03.318Z,1.28
2022-09-01T18:40:36.077Z,1.14
2022-09-01T18:42:07.791Z,1.21
2022-09-01T18:43:39.411Z,1.04
2022-09-01T18:45:10.952Z,1.24
2022-09-01T18:46:43.325Z,1.20
2022-09-01T18:48:21.348Z,1.25
2022-09-01T18:49:53.283Z,1.38
2022-09-01T18:51:25.177Z,1.36
2022-09-01T18:52:56.805Z,1.32
2022-09-01T18:55:03.911Z,1.25
2022-09-01T18:56:38.019Z,1.35
2022-09-01T18:58:09.964Z,1.32
2022-09-01T18:59:41.399Z,1.42
2022-09-01T19:01:13.003Z,1.18
2022-09-01T19:02:44.637Z,1.27
2022-09-01T19:04:16.117Z,1.27
2022-09-01T19:05:47.564Z,1.24
2022-09-01T19:07:18.941Z,1.37
2022-09-01T19:08:50.349Z,1.37
2022-09-01T19:10:21.734Z,1.25
2022-09-01T19:11:53.203Z,1.29
2022-09-01T19:13:24.616Z,1.14
2022-09-01T19:14:56.082Z,1.69
2022-09-01T19:16:27.480Z,1.07
2022-09-01T19:17:58.861Z,1.35
2022-09-01T19:19:30.233Z,1.61
2022-09-01T19:21:01.821Z,1.41
2022-09-01T19:22:33.290Z,1.15
2022-09-01T19:24:04.629Z,1.23
2022-09-01T19:25:36.047Z,1.24
2022-09-01T19:27:07.425Z,1.36
2022-09-01T19:28:38.810Z,1.19
2022-09-01T19:30:10.304Z,1.24
2022-09-01T19:31:41.760Z,1.38
2022-09-01T19:33:13.185Z,1.20
2022-09-01T19:34:44.646Z,1.17
2022-09-01T19:36:16.044Z,1.21
2022-09-01T19:37:47.480Z,1.36
2022-09-01T19:39:18.863Z,1.27
2022-09-01T19:40:50.216Z,1.26
2022-09-01T19:42:21.570Z,1.40
2022-09-01T19:43:52.965Z,1.48
2022-09-01T19:45:24.324Z,1.42
2022-09-01T19:46:55.789Z,1.27
2022-09-01T19:48:27.167Z,1.56
2022-09-01T19:49:58.644Z,1.32
2022-09-01T19:51:30.005Z,1.44
2022-09-01T19:53:01.367Z,1.40
2022-09-01T19:54:32.728Z,1.38
2022-09-01T19:56:04.328Z,1.36
2022-09-01T19:57:35.791Z,1.46
2022-09-01T19:59:07.590Z,1.81
2022-09-01T20:00:39.078Z,1.98
2022-09-01T20:02:10.722Z,1.70
2022-09-01T20:03:42.132Z,1.39
2022-09-01T20:05:13.888Z,1.32
2022-09-01T20:06:45.220Z,1.80
2022-09-01T20:08:16.617Z,1.52
2022-09-01T20:09:48.047Z,1.63
2022-09-01T20:11:19.403Z,1.78
2022-09-01T20:12:50.843Z,1.35
2022-09-01T20:14:22.229Z,1.19
2022-09-01T20:15:53.682Z,1.34
2022-09-01T20:17:25.560Z,1.49
2022-09-01T20:18:57.168Z,1.30
2022-09-01T20:20:28.972Z,1.30
2022-09-01T20:22:00.458Z,1.38
2022-09-01T20:23:31.873Z,1.15
2022-09-01T20:25:03.468Z,1.23
2022-09-01T20:26:34.884Z,1.25
2022-09-01T20:28:06.291Z,1.17
2022-09-01T20:29:38.195Z,1.28
2022-09-01T20:31:09.655Z,1.38
2022-09-01T20:32:41.151Z,1.25
2022-09-01T20:34:12.504Z,1.33
2022-09-01T20:35:43.884Z,1.28
2022-09-01T20:37:15.229Z,1.29
2022-09-01T20:38:46.635Z,1.29
2022-09-01T20:40:18.089Z,1.18
2022-09-01T20:41:49.470Z,1.32
2022-09-01T20:43:21.101Z,1.33
2022-09-01T20:44:52.568Z,1.20
2022-09-01T20:46:24.082Z,1.14
2022-09-01T20:47:55.545Z,1.12
2022-09-01T20:49:29.582Z,1.19
2022-09-01T20:51:01.196Z,1.13
2022-09-01T20:52:32.685Z,1.15
2022-09-01T20:54:04.115Z,1.40
2022-09-01T20:55:35.495Z,1.10
2022-09-01T20:57:06.867Z,1.26
2022-09-01T20:58:38.338Z,1.42
2022-09-01T21:00:09.917Z,1.28
2022-09-01T21:01:41.464Z,1.49
2022-09-01T21:03:12.886Z,1.22
2022-09-01T21:04:44.274Z,1.08
2022-09-01T21:06:15.708Z,1.24